sensor_id;sensor_type;location;lat;lon;timestamp;P1;durP1;ratioP1;P2;durP2;ratioP2
21890;SDS011;11110;52.386;16.940;2023-06-22T00:00:56;17.85;;;14.02;;
21890;SDS011;11110;52.386;16.940;2023-06-22T00:03:32;17.48;;;13.68;;
21890;SDS011;11110;52.386;16.940;2023-06-22T00:06:01;17.10;;;13.27;;
21890;SDS011;11110;52.386;16.940;2023-06-22T00:08:29;16.08;;;13.35;;
21890;SDS011;11110;52.386;16.940;2023-06-22T00:10:58;14.45;;;12.80;;
21890;SDS011;11110;52.386;16.940;2023-06-22T00:13:28;17.35;;;13.98;;
21890;SDS011;11110;52.386;16.940;2023-06-22T00:15:57;16.50;;;14.05;;
21890;SDS011;11110;52.386;16.940;2023-06-22T00:18:25;16.13;;;13.02;;
21890;SDS011;11110;52.386;16.940;2023-06-22T00:20:55;17.17;;;13.07;;
21890;SDS011;11110;52.386;16.940;2023-06-22T00:23:25;17.15;;;13.43;;
21890;SDS011;11110;52.386;16.940;2023-06-22T00:25:54;15.55;;;12.85;;
21890;SDS011;11110;52.386;16.940;2023-06-22T00:28:22;14.77;;;12.50;;
21890;SDS011;11110;52.386;16.940;2023-06-22T00:30:52;17.48;;;13.50;;
21890;SDS011;11110;52.386;16.940;2023-06-22T00:33:21;16.02;;;13.18;;
21890;SDS011;11110;52.386;16.940;2023-06-22T00:35:49;14.40;;;12.27;;
21890;SDS011;11110;52.386;16.940;2023-06-22T00:38:19;15.15;;;12.45;;
21890;SDS011;11110;52.386;16.940;2023-06-22T00:40:48;16.25;;;12.85;;
21890;SDS011;11110;52.386;16.940;2023-06-22T00:43:16;15.45;;;12.70;;
21890;SDS011;11110;52.386;16.940;2023-06-22T00:45:45;14.68;;;12.38;;
21890;SDS011;11110;52.386;16.940;2023-06-22T00:48:18;15.27;;;12.68;;
21890;SDS011;11110;52.386;16.940;2023-06-22T00:50:47;14.00;;;12.40;;
21890;SDS011;11110;52.386;16.940;2023-06-22T00:53:17;14.02;;;12.18;;
21890;SDS011;11110;52.386;16.940;2023-06-22T00:55:46;14.15;;;11.82;;
21890;SDS011;11110;52.386;16.940;2023-06-22T00:58:18;15.88;;;12.90;;
21890;SDS011;11110;52.386;16.940;2023-06-22T01:00:48;13.73;;;11.32;;
21890;SDS011;11110;52.386;16.940;2023-06-22T01:03:18;13.55;;;12.15;;
21890;SDS011;11110;52.386;16.940;2023-06-22T01:05:48;14.80;;;12.30;;
21890;SDS011;11110;52.386;16.940;2023-06-22T01:08:23;15.32;;;12.32;;
21890;SDS011;11110;52.386;16.940;2023-06-22T01:11:12;16.13;;;11.98;;
21890;SDS011;11110;52.386;16.940;2023-06-22T01:13:47;15.77;;;12.15;;
21890;SDS011;11110;52.386;16.940;2023-06-22T01:16:26;14.85;;;11.82;;
21890;SDS011;11110;52.386;16.940;2023-06-22T01:19:01;15.73;;;12.23;;
21890;SDS011;11110;52.386;16.940;2023-06-22T01:21:37;14.57;;;11.38;;
21890;SDS011;11110;52.386;16.940;2023-06-22T01:24:11;13.52;;;12.13;;
21890;SDS011;11110;52.386;16.940;2023-06-22T01:26:48;14.75;;;11.35;;
21890;SDS011;11110;52.386;16.940;2023-06-22T01:29:29;13.50;;;11.75;;
21890;SDS011;11110;52.386;16.940;2023-06-22T01:31:59;13.30;;;11.13;;
21890;SDS011;11110;52.386;16.940;2023-06-22T01:34:34;12.57;;;11.05;;
21890;SDS011;11110;52.386;16.940;2023-06-22T01:37:06;13.80;;;11.40;;
21890;SDS011;11110;52.386;16.940;2023-06-22T01:39:50;14.90;;;12.52;;
21890;SDS011;11110;52.386;16.940;2023-06-22T01:42:21;15.88;;;12.27;;
21890;SDS011;11110;52.386;16.940;2023-06-22T01:44:53;15.07;;;11.77;;
21890;SDS011;11110;52.386;16.940;2023-06-22T01:47:22;16.00;;;12.57;;
21890;SDS011;11110;52.386;16.940;2023-06-22T01:49:51;14.25;;;12.40;;
21890;SDS011;11110;52.386;16.940;2023-06-22T01:52:20;13.70;;;11.57;;
21890;SDS011;11110;52.386;16.940;2023-06-22T01:54:49;14.02;;;12.15;;
21890;SDS011;11110;52.386;16.940;2023-06-22T01:57:18;17.08;;;12.43;;
21890;SDS011;11110;52.386;16.940;2023-06-22T01:59:48;15.43;;;12.68;;
21890;SDS011;11110;52.386;16.940;2023-06-22T02:02:28;14.00;;;12.50;;
21890;SDS011;11110;52.386;16.940;2023-06-22T02:05:03;14.82;;;13.25;;
21890;SDS011;11110;52.386;16.940;2023-06-22T02:07:40;14.43;;;12.05;;
21890;SDS011;11110;52.386;16.940;2023-06-22T02:10:16;14.15;;;12.60;;
21890;SDS011;11110;52.386;16.940;2023-06-22T02:12:48;14.60;;;12.77;;
21890;SDS011;11110;52.386;16.940;2023-06-22T02:15:20;16.63;;;12.93;;
21890;SDS011;11110;52.386;16.940;2023-06-22T02:17:52;15.55;;;13.18;;
21890;SDS011;11110;52.386;16.940;2023-06-22T02:20:21;16.83;;;12.48;;
21890;SDS011;11110;52.386;16.940;2023-06-22T02:22:51;15.45;;;12.82;;
21890;SDS011;11110;52.386;16.940;2023-06-22T02:25:20;15.35;;;13.07;;
21890;SDS011;11110;52.386;16.940;2023-06-22T02:27:49;14.07;;;12.52;;
21890;SDS011;11110;52.386;16.940;2023-06-22T02:30:17;17.13;;;11.98;;
21890;SDS011;11110;52.386;16.940;2023-06-22T02:32:47;14.25;;;12.63;;
21890;SDS011;11110;52.386;16.940;2023-06-22T02:35:16;14.13;;;11.82;;
21890;SDS011;11110;52.386;16.940;2023-06-22T02:37:45;14.63;;;11.60;;
21890;SDS011;11110;52.386;16.940;2023-06-22T02:40:13;13.85;;;10.65;;
21890;SDS011;11110;52.386;16.940;2023-06-22T02:42:42;10.20;;;9.07;;
21890;SDS011;11110;52.386;16.940;2023-06-22T02:45:10;12.60;;;9.55;;
21890;SDS011;11110;52.386;16.940;2023-06-22T02:47:39;12.90;;;9.63;;
21890;SDS011;11110;52.386;16.940;2023-06-22T02:50:09;13.98;;;9.15;;
21890;SDS011;11110;52.386;16.940;2023-06-22T02:52:38;9.68;;;8.13;;
21890;SDS011;11110;52.386;16.940;2023-06-22T02:55:07;11.07;;;8.57;;
21890;SDS011;11110;52.386;16.940;2023-06-22T02:57:36;11.50;;;8.20;;
21890;SDS011;11110;52.386;16.940;2023-06-22T03:00:10;10.13;;;8.02;;
21890;SDS011;11110;52.386;16.940;2023-06-22T03:02:46;10.38;;;7.55;;
21890;SDS011;11110;52.386;16.940;2023-06-22T03:05:18;8.07;;;6.88;;
21890;SDS011;11110;52.386;16.940;2023-06-22T03:07:47;9.13;;;6.97;;
21890;SDS011;11110;52.386;16.940;2023-06-22T03:10:16;9.18;;;6.47;;
21890;SDS011;11110;52.386;16.940;2023-06-22T03:12:45;9.27;;;6.57;;
21890;SDS011;11110;52.386;16.940;2023-06-22T03:15:14;7.28;;;6.55;;
21890;SDS011;11110;52.386;16.940;2023-06-22T03:17:44;8.30;;;6.25;;
21890;SDS011;11110;52.386;16.940;2023-06-22T03:20:13;8.93;;;6.43;;
21890;SDS011;11110;52.386;16.940;2023-06-22T03:22:43;6.78;;;6.07;;
21890;SDS011;11110;52.386;16.940;2023-06-22T03:25:12;6.78;;;5.65;;
21890;SDS011;11110;52.386;16.940;2023-06-22T03:27:44;6.95;;;6.00;;
21890;SDS011;11110;52.386;16.940;2023-06-22T03:30:14;8.30;;;6.35;;
21890;SDS011;11110;52.386;16.940;2023-06-22T03:32:45;8.57;;;6.50;;
21890;SDS011;11110;52.386;16.940;2023-06-22T03:35:14;7.00;;;6.13;;
21890;SDS011;11110;52.386;16.940;2023-06-22T03:37:44;24.40;;;7.07;;
21890;SDS011;11110;52.386;16.940;2023-06-22T03:40:13;7.70;;;6.35;;
21890;SDS011;11110;52.386;16.940;2023-06-22T03:42:41;8.55;;;5.93;;
21890;SDS011;11110;52.386;16.940;2023-06-22T03:45:10;8.50;;;6.60;;
21890;SDS011;11110;52.386;16.940;2023-06-22T03:47:38;7.80;;;6.25;;
21890;SDS011;11110;52.386;16.940;2023-06-22T03:50:07;8.95;;;6.18;;
21890;SDS011;11110;52.386;16.940;2023-06-22T03:52:36;7.57;;;5.85;;
21890;SDS011;11110;52.386;16.940;2023-06-22T03:55:07;8.52;;;6.72;;
21890;SDS011;11110;52.386;16.940;2023-06-22T03:57:35;8.25;;;5.57;;
21890;SDS011;11110;52.386;16.940;2023-06-22T04:00:04;8.55;;;6.32;;
21890;SDS011;11110;52.386;16.940;2023-06-22T04:02:41;8.52;;;6.18;;
21890;SDS011;11110;52.386;16.940;2023-06-22T04:05:09;6.63;;;5.68;;
21890;SDS011;11110;52.386;16.940;2023-06-22T04:07:38;7.88;;;6.15;;
21890;SDS011;11110;52.386;16.940;2023-06-22T04:10:08;7.45;;;5.88;;
21890;SDS011;11110;52.386;16.940;2023-06-22T04:12:39;7.93;;;5.82;;
21890;SDS011;11110;52.386;16.940;2023-06-22T04:15:08;9.25;;;6.15;;
21890;SDS011;11110;52.386;16.940;2023-06-22T04:17:39;9.50;;;6.10;;
21890;SDS011;11110;52.386;16.940;2023-06-22T04:20:07;6.38;;;5.35;;
21890;SDS011;11110;52.386;16.940;2023-06-22T04:22:37;9.75;;;6.18;;
21890;SDS011;11110;52.386;16.940;2023-06-22T04:25:05;9.18;;;6.22;;
21890;SDS011;11110;52.386;16.940;2023-06-22T04:27:36;11.45;;;5.63;;
21890;SDS011;11110;52.386;16.940;2023-06-22T04:30:07;7.97;;;5.38;;
21890;SDS011;11110;52.386;16.940;2023-06-22T04:32:36;6.60;;;5.30;;
21890;SDS011;11110;52.386;16.940;2023-06-22T04:35:06;10.45;;;6.60;;
21890;SDS011;11110;52.386;16.940;2023-06-22T04:37:36;7.00;;;5.50;;
21890;SDS011;11110;52.386;16.940;2023-06-22T04:40:05;7.30;;;5.50;;
21890;SDS011;11110;52.386;16.940;2023-06-22T04:42:38;6.70;;;5.07;;
21890;SDS011;11110;52.386;16.940;2023-06-22T04:45:06;9.00;;;5.32;;
21890;SDS011;11110;52.386;16.940;2023-06-22T04:47:37;6.25;;;4.90;;
21890;SDS011;11110;52.386;16.940;2023-06-22T04:50:06;8.07;;;5.43;;
21890;SDS011;11110;52.386;16.940;2023-06-22T04:52:35;7.68;;;4.90;;
21890;SDS011;11110;52.386;16.940;2023-06-22T04:55:03;5.80;;;4.45;;
21890;SDS011;11110;52.386;16.940;2023-06-22T04:57:33;6.10;;;4.47;;
21890;SDS011;11110;52.386;16.940;2023-06-22T05:00:03;10.05;;;7.13;;
21890;SDS011;11110;52.386;16.940;2023-06-22T05:02:43;10.98;;;6.97;;
21890;SDS011;11110;52.386;16.940;2023-06-22T05:05:13;8.55;;;4.93;;
21890;SDS011;11110;52.386;16.940;2023-06-22T05:07:43;5.93;;;4.13;;
21890;SDS011;11110;52.386;16.940;2023-06-22T05:10:12;5.78;;;4.05;;
21890;SDS011;11110;52.386;16.940;2023-06-22T05:12:41;7.38;;;4.22;;
21890;SDS011;11110;52.386;16.940;2023-06-22T05:15:11;6.75;;;4.05;;
21890;SDS011;11110;52.386;16.940;2023-06-22T05:17:40;9.40;;;4.32;;
21890;SDS011;11110;52.386;16.940;2023-06-22T05:20:10;5.55;;;4.03;;
21890;SDS011;11110;52.386;16.940;2023-06-22T05:22:39;6.53;;;4.50;;
21890;SDS011;11110;52.386;16.940;2023-06-22T05:25:10;5.90;;;3.65;;
21890;SDS011;11110;52.386;16.940;2023-06-22T05:27:39;6.93;;;3.70;;
21890;SDS011;11110;52.386;16.940;2023-06-22T05:30:08;6.30;;;3.85;;
21890;SDS011;11110;52.386;16.940;2023-06-22T05:32:39;5.68;;;3.42;;
21890;SDS011;11110;52.386;16.940;2023-06-22T05:35:08;4.38;;;3.50;;
21890;SDS011;11110;52.386;16.940;2023-06-22T05:37:37;5.82;;;3.28;;
21890;SDS011;11110;52.386;16.940;2023-06-22T05:40:06;6.80;;;3.75;;
21890;SDS011;11110;52.386;16.940;2023-06-22T05:42:36;6.00;;;3.45;;
21890;SDS011;11110;52.386;16.940;2023-06-22T05:45:05;9.57;;;3.45;;
21890;SDS011;11110;52.386;16.940;2023-06-22T05:47:34;3.97;;;3.35;;
21890;SDS011;11110;52.386;16.940;2023-06-22T05:50:04;7.75;;;4.00;;
21890;SDS011;11110;52.386;16.940;2023-06-22T05:52:39;5.90;;;3.13;;
21890;SDS011;11110;52.386;16.940;2023-06-22T05:55:07;5.63;;;3.30;;
21890;SDS011;11110;52.386;16.940;2023-06-22T05:57:37;6.57;;;3.25;;
21890;SDS011;11110;52.386;16.940;2023-06-22T06:00:05;7.85;;;3.25;;
21890;SDS011;11110;52.386;16.940;2023-06-22T06:02:37;6.15;;;3.03;;
21890;SDS011;11110;52.386;16.940;2023-06-22T06:05:12;5.32;;;3.40;;
21890;SDS011;11110;52.386;16.940;2023-06-22T06:07:41;5.00;;;3.00;;
21890;SDS011;11110;52.386;16.940;2023-06-22T06:10:10;5.05;;;3.22;;
21890;SDS011;11110;52.386;16.940;2023-06-22T06:12:39;8.55;;;3.47;;
21890;SDS011;11110;52.386;16.940;2023-06-22T06:15:08;7.13;;;3.40;;
21890;SDS011;11110;52.386;16.940;2023-06-22T06:17:44;5.07;;;3.35;;
21890;SDS011;11110;52.386;16.940;2023-06-22T06:20:15;6.53;;;3.25;;
21890;SDS011;11110;52.386;16.940;2023-06-22T06:22:46;6.13;;;3.28;;
21890;SDS011;11110;52.386;16.940;2023-06-22T06:25:14;5.90;;;3.33;;
21890;SDS011;11110;52.386;16.940;2023-06-22T06:27:44;6.05;;;3.45;;
21890;SDS011;11110;52.386;16.940;2023-06-22T06:30:14;4.53;;;3.13;;
21890;SDS011;11110;52.386;16.940;2023-06-22T06:32:43;6.18;;;3.17;;
21890;SDS011;11110;52.386;16.940;2023-06-22T06:35:14;6.82;;;3.95;;
21890;SDS011;11110;52.386;16.940;2023-06-22T06:37:44;5.75;;;4.03;;
21890;SDS011;11110;52.386;16.940;2023-06-22T06:40:14;8.13;;;4.20;;
21890;SDS011;11110;52.386;16.940;2023-06-22T06:42:44;6.10;;;3.58;;
21890;SDS011;11110;52.386;16.940;2023-06-22T06:45:15;5.57;;;3.83;;
21890;SDS011;11110;52.386;16.940;2023-06-22T06:47:44;7.07;;;3.95;;
21890;SDS011;11110;52.386;16.940;2023-06-22T06:50:15;5.30;;;3.50;;
21890;SDS011;11110;52.386;16.940;2023-06-22T06:52:45;8.15;;;4.10;;
21890;SDS011;11110;52.386;16.940;2023-06-22T06:55:13;7.10;;;3.97;;
21890;SDS011;11110;52.386;16.940;2023-06-22T06:57:42;5.72;;;3.55;;
21890;SDS011;11110;52.386;16.940;2023-06-22T07:00:11;9.32;;;4.10;;
21890;SDS011;11110;52.386;16.940;2023-06-22T07:02:42;7.45;;;4.20;;
21890;SDS011;11110;52.386;16.940;2023-06-22T07:05:12;7.70;;;3.92;;
21890;SDS011;11110;52.386;16.940;2023-06-22T07:07:42;5.75;;;3.95;;
21890;SDS011;11110;52.386;16.940;2023-06-22T07:10:10;6.10;;;3.83;;
21890;SDS011;11110;52.386;16.940;2023-06-22T07:12:39;7.55;;;3.72;;
21890;SDS011;11110;52.386;16.940;2023-06-22T07:15:08;6.47;;;4.15;;
21890;SDS011;11110;52.386;16.940;2023-06-22T07:17:39;7.40;;;3.90;;
21890;SDS011;11110;52.386;16.940;2023-06-22T07:20:08;6.50;;;3.83;;
21890;SDS011;11110;52.386;16.940;2023-06-22T07:22:53;8.93;;;4.38;;
21890;SDS011;11110;52.386;16.940;2023-06-22T07:25:21;8.23;;;4.15;;
21890;SDS011;11110;52.386;16.940;2023-06-22T07:27:56;7.15;;;3.60;;
21890;SDS011;11110;52.386;16.940;2023-06-22T07:30:26;6.78;;;4.30;;
21890;SDS011;11110;52.386;16.940;2023-06-22T07:32:56;5.60;;;3.15;;
21890;SDS011;11110;52.386;16.940;2023-06-22T07:35:25;5.53;;;3.72;;
21890;SDS011;11110;52.386;16.940;2023-06-22T07:37:56;3.80;;;3.17;;
21890;SDS011;11110;52.386;16.940;2023-06-22T07:40:26;7.25;;;4.50;;
21890;SDS011;11110;52.386;16.940;2023-06-22T07:42:55;6.68;;;4.20;;
21890;SDS011;11110;52.386;16.940;2023-06-22T07:45:23;7.82;;;4.40;;
21890;SDS011;11110;52.386;16.940;2023-06-22T07:47:52;4.20;;;3.35;;
21890;SDS011;11110;52.386;16.940;2023-06-22T07:50:20;7.22;;;4.15;;
21890;SDS011;11110;52.386;16.940;2023-06-22T07:52:49;4.88;;;3.70;;
21890;SDS011;11110;52.386;16.940;2023-06-22T07:55:20;8.80;;;5.05;;
21890;SDS011;11110;52.386;16.940;2023-06-22T07:57:49;7.43;;;4.25;;
21890;SDS011;11110;52.386;16.940;2023-06-22T08:00:19;5.05;;;3.50;;
21890;SDS011;11110;52.386;16.940;2023-06-22T08:02:47;7.03;;;4.00;;
21890;SDS011;11110;52.386;16.940;2023-06-22T08:05:16;6.53;;;3.60;;
21890;SDS011;11110;52.386;16.940;2023-06-22T08:08:00;4.00;;;3.25;;
21890;SDS011;11110;52.386;16.940;2023-06-22T08:10:30;8.48;;;4.03;;
21890;SDS011;11110;52.386;16.940;2023-06-22T08:12:59;7.00;;;4.10;;
21890;SDS011;11110;52.386;16.940;2023-06-22T08:15:27;6.55;;;3.90;;
21890;SDS011;11110;52.386;16.940;2023-06-22T08:17:56;6.90;;;3.53;;
21890;SDS011;11110;52.386;16.940;2023-06-22T08:20:26;5.88;;;3.95;;
21890;SDS011;11110;52.386;16.940;2023-06-22T08:22:55;5.65;;;3.97;;
21890;SDS011;11110;52.386;16.940;2023-06-22T08:25:24;6.03;;;3.83;;
21890;SDS011;11110;52.386;16.940;2023-06-22T08:27:55;5.18;;;3.80;;
21890;SDS011;11110;52.386;16.940;2023-06-22T08:30:23;7.70;;;4.43;;
21890;SDS011;11110;52.386;16.940;2023-06-22T08:32:52;5.63;;;3.63;;
21890;SDS011;11110;52.386;16.940;2023-06-22T08:35:21;4.57;;;3.00;;
21890;SDS011;11110;52.386;16.940;2023-06-22T08:37:50;3.47;;;2.90;;
21890;SDS011;11110;52.386;16.940;2023-06-22T08:40:22;4.00;;;3.10;;
21890;SDS011;11110;52.386;16.940;2023-06-22T08:42:51;4.80;;;3.97;;
21890;SDS011;11110;52.386;16.940;2023-06-22T08:45:21;4.90;;;3.42;;
21890;SDS011;11110;52.386;16.940;2023-06-22T08:47:52;4.68;;;3.22;;
21890;SDS011;11110;52.386;16.940;2023-06-22T08:50:20;5.40;;;3.15;;
21890;SDS011;11110;52.386;16.940;2023-06-22T08:52:49;4.40;;;2.83;;
21890;SDS011;11110;52.386;16.940;2023-06-22T08:55:17;4.13;;;2.78;;
21890;SDS011;11110;52.386;16.940;2023-06-22T08:57:46;5.13;;;3.20;;
21890;SDS011;11110;52.386;16.940;2023-06-22T09:00:15;3.60;;;2.90;;
21890;SDS011;11110;52.386;16.940;2023-06-22T09:02:48;3.45;;;3.15;;
21890;SDS011;11110;52.386;16.940;2023-06-22T09:05:17;4.22;;;2.95;;
21890;SDS011;11110;52.386;16.940;2023-06-22T09:07:46;4.68;;;3.15;;
21890;SDS011;11110;52.386;16.940;2023-06-22T09:10:14;4.20;;;3.08;;
21890;SDS011;11110;52.386;16.940;2023-06-22T09:12:43;3.85;;;3.45;;
21890;SDS011;11110;52.386;16.940;2023-06-22T09:15:12;4.70;;;3.05;;
21890;SDS011;11110;52.386;16.940;2023-06-22T09:17:44;3.83;;;2.95;;
21890;SDS011;11110;52.386;16.940;2023-06-22T09:20:16;4.13;;;2.80;;
21890;SDS011;11110;52.386;16.940;2023-06-22T09:22:44;5.25;;;3.13;;
21890;SDS011;11110;52.386;16.940;2023-06-22T09:25:13;4.93;;;3.30;;
21890;SDS011;11110;52.386;16.940;2023-06-22T09:27:42;5.78;;;2.75;;
21890;SDS011;11110;52.386;16.940;2023-06-22T09:30:11;3.03;;;2.65;;
21890;SDS011;11110;52.386;16.940;2023-06-22T09:32:40;3.72;;;2.70;;
21890;SDS011;11110;52.386;16.940;2023-06-22T09:35:09;3.40;;;3.00;;
21890;SDS011;11110;52.386;16.940;2023-06-22T09:37:41;2.67;;;2.47;;
21890;SDS011;11110;52.386;16.940;2023-06-22T09:40:10;3.60;;;2.28;;
21890;SDS011;11110;52.386;16.940;2023-06-22T09:42:41;2.15;;;1.95;;
21890;SDS011;11110;52.386;16.940;2023-06-22T09:45:09;3.85;;;2.20;;
21890;SDS011;11110;52.386;16.940;2023-06-22T09:47:38;2.60;;;2.40;;
21890;SDS011;11110;52.386;16.940;2023-06-22T09:50:07;3.42;;;2.38;;
21890;SDS011;11110;52.386;16.940;2023-06-22T09:52:36;4.50;;;2.80;;
21890;SDS011;11110;52.386;16.940;2023-06-22T09:55:09;4.63;;;2.67;;
21890;SDS011;11110;52.386;16.940;2023-06-22T09:57:37;5.03;;;3.60;;
21890;SDS011;11110;52.386;16.940;2023-06-22T10:00:06;3.95;;;3.17;;
21890;SDS011;11110;52.386;16.940;2023-06-22T10:02:38;4.47;;;2.83;;
21890;SDS011;11110;52.386;16.940;2023-06-22T10:05:08;5.18;;;2.50;;
21890;SDS011;11110;52.386;16.940;2023-06-22T10:07:40;3.47;;;2.70;;
21890;SDS011;11110;52.386;16.940;2023-06-22T10:10:12;4.13;;;2.40;;
21890;SDS011;11110;52.386;16.940;2023-06-22T10:12:43;3.65;;;2.33;;
21890;SDS011;11110;52.386;16.940;2023-06-22T10:15:13;4.07;;;3.08;;
21890;SDS011;11110;52.386;16.940;2023-06-22T10:17:43;4.43;;;3.13;;
21890;SDS011;11110;52.386;16.940;2023-06-22T10:20:11;4.25;;;2.90;;
21890;SDS011;11110;52.386;16.940;2023-06-22T10:22:40;3.80;;;2.65;;
21890;SDS011;11110;52.386;16.940;2023-06-22T10:25:10;2.95;;;2.45;;
21890;SDS011;11110;52.386;16.940;2023-06-22T10:27:40;2.90;;;2.17;;
21890;SDS011;11110;52.386;16.940;2023-06-22T10:30:09;3.55;;;2.83;;
21890;SDS011;11110;52.386;16.940;2023-06-22T10:32:40;4.50;;;2.72;;
21890;SDS011;11110;52.386;16.940;2023-06-22T10:35:10;3.92;;;2.50;;
21890;SDS011;11110;52.386;16.940;2023-06-22T10:37:41;3.20;;;2.63;;
21890;SDS011;11110;52.386;16.940;2023-06-22T10:40:13;3.28;;;2.35;;
21890;SDS011;11110;52.386;16.940;2023-06-22T10:42:43;3.22;;;2.60;;
21890;SDS011;11110;52.386;16.940;2023-06-22T10:45:11;3.70;;;2.60;;
21890;SDS011;11110;52.386;16.940;2023-06-22T10:47:40;2.63;;;2.42;;
21890;SDS011;11110;52.386;16.940;2023-06-22T10:50:09;3.38;;;2.63;;
21890;SDS011;11110;52.386;16.940;2023-06-22T10:52:38;3.00;;;2.70;;
21890;SDS011;11110;52.386;16.940;2023-06-22T10:55:08;2.97;;;2.67;;
21890;SDS011;11110;52.386;16.940;2023-06-22T10:57:39;5.55;;;2.47;;
21890;SDS011;11110;52.386;16.940;2023-06-22T11:00:10;3.60;;;2.60;;
21890;SDS011;11110;52.386;16.940;2023-06-22T11:02:40;3.55;;;2.78;;
21890;SDS011;11110;52.386;16.940;2023-06-22T11:05:09;5.47;;;2.88;;
21890;SDS011;11110;52.386;16.940;2023-06-22T11:07:41;3.35;;;2.40;;
21890;SDS011;11110;52.386;16.940;2023-06-22T11:10:14;3.30;;;2.50;;
21890;SDS011;11110;52.386;16.940;2023-06-22T11:12:44;2.75;;;2.55;;
21890;SDS011;11110;52.386;16.940;2023-06-22T11:15:13;3.67;;;3.03;;
21890;SDS011;11110;52.386;16.940;2023-06-22T11:17:42;6.20;;;3.20;;
21890;SDS011;11110;52.386;16.940;2023-06-22T11:20:10;3.03;;;2.70;;
21890;SDS011;11110;52.386;16.940;2023-06-22T11:22:40;3.90;;;2.63;;
21890;SDS011;11110;52.386;16.940;2023-06-22T11:25:09;2.50;;;2.30;;
21890;SDS011;11110;52.386;16.940;2023-06-22T11:27:39;6.53;;;2.80;;
21890;SDS011;11110;52.386;16.940;2023-06-22T11:30:09;4.30;;;2.38;;
21890;SDS011;11110;52.386;16.940;2023-06-22T11:32:38;2.90;;;2.60;;
21890;SDS011;11110;52.386;16.940;2023-06-22T11:35:07;2.72;;;2.53;;
21890;SDS011;11110;52.386;16.940;2023-06-22T11:37:36;4.60;;;2.75;;
21890;SDS011;11110;52.386;16.940;2023-06-22T11:40:05;4.20;;;2.92;;
21890;SDS011;11110;52.386;16.940;2023-06-22T11:42:35;4.95;;;2.70;;
21890;SDS011;11110;52.386;16.940;2023-06-22T11:45:04;4.25;;;2.90;;
21890;SDS011;11110;52.386;16.940;2023-06-22T11:47:36;4.30;;;2.85;;
21890;SDS011;11110;52.386;16.940;2023-06-22T11:50:06;5.90;;;3.03;;
21890;SDS011;11110;52.386;16.940;2023-06-22T11:52:35;3.63;;;3.00;;
21890;SDS011;11110;52.386;16.940;2023-06-22T11:55:04;3.80;;;3.00;;
21890;SDS011;11110;52.386;16.940;2023-06-22T11:57:33;10.90;;;3.53;;
21890;SDS011;11110;52.386;16.940;2023-06-22T12:00:03;3.30;;;3.00;;
21890;SDS011;11110;52.386;16.940;2023-06-22T12:02:44;4.97;;;3.00;;
21890;SDS011;11110;52.386;16.940;2023-06-22T12:05:13;3.70;;;2.75;;
21890;SDS011;11110;52.386;16.940;2023-06-22T12:07:41;3.65;;;3.03;;
21890;SDS011;11110;52.386;16.940;2023-06-22T12:10:10;3.72;;;2.88;;
21890;SDS011;11110;52.386;16.940;2023-06-22T12:12:39;3.30;;;2.80;;
21890;SDS011;11110;52.386;16.940;2023-06-22T12:15:08;5.05;;;3.38;;
21890;SDS011;11110;52.386;16.940;2023-06-22T12:17:37;3.78;;;3.25;;
21890;SDS011;11110;52.386;16.940;2023-06-22T12:20:08;3.97;;;3.58;;
21890;SDS011;11110;52.386;16.940;2023-06-22T12:22:37;6.50;;;3.95;;
21890;SDS011;11110;52.386;16.940;2023-06-22T12:25:06;4.88;;;3.45;;
21890;SDS011;11110;52.386;16.940;2023-06-22T12:27:35;5.03;;;3.53;;
21890;SDS011;11110;52.386;16.940;2023-06-22T12:30:04;3.65;;;3.38;;
21890;SDS011;11110;52.386;16.940;2023-06-22T12:32:33;4.13;;;3.40;;
21890;SDS011;11110;52.386;16.940;2023-06-22T12:35:01;5.15;;;3.38;;
21890;SDS011;11110;52.386;16.940;2023-06-22T12:37:31;4.60;;;3.55;;
21890;SDS011;11110;52.386;16.940;2023-06-22T12:40:00;3.35;;;3.05;;
21890;SDS011;11110;52.386;16.940;2023-06-22T12:42:31;3.72;;;2.92;;
21890;SDS011;11110;52.386;16.940;2023-06-22T12:44:59;3.53;;;3.13;;
21890;SDS011;11110;52.386;16.940;2023-06-22T12:47:28;4.32;;;2.92;;
21890;SDS011;11110;52.386;16.940;2023-06-22T12:49:56;4.85;;;3.22;;
21890;SDS011;11110;52.386;16.940;2023-06-22T12:52:25;4.43;;;3.22;;
21890;SDS011;11110;52.386;16.940;2023-06-22T12:54:54;3.58;;;3.28;;
21890;SDS011;11110;52.386;16.940;2023-06-22T12:57:23;3.50;;;3.17;;
21890;SDS011;11110;52.386;16.940;2023-06-22T12:59:52;4.97;;;3.20;;
21890;SDS011;11110;52.386;16.940;2023-06-22T13:02:20;3.67;;;3.25;;
21890;SDS011;11110;52.386;16.940;2023-06-22T13:04:49;3.35;;;3.05;;
21890;SDS011;11110;52.386;16.940;2023-06-22T13:07:17;4.10;;;3.17;;
21890;SDS011;11110;52.386;16.940;2023-06-22T13:09:49;4.35;;;3.92;;
21890;SDS011;11110;52.386;16.940;2023-06-22T13:12:21;3.83;;;3.08;;
21890;SDS011;11110;52.386;16.940;2023-06-22T13:14:49;4.38;;;3.35;;
21890;SDS011;11110;52.386;16.940;2023-06-22T13:17:18;3.70;;;3.35;;
21890;SDS011;11110;52.386;16.940;2023-06-22T13:19:46;4.50;;;3.33;;
21890;SDS011;11110;52.386;16.940;2023-06-22T13:22:25;5.43;;;3.47;;
21890;SDS011;11110;52.386;16.940;2023-06-22T13:24:56;3.50;;;3.20;;
21890;SDS011;11110;52.386;16.940;2023-06-22T13:27:27;5.18;;;4.47;;
21890;SDS011;11110;52.386;16.940;2023-06-22T13:29:55;6.93;;;5.38;;
21890;SDS011;11110;52.386;16.940;2023-06-22T13:32:24;3.92;;;3.20;;
21890;SDS011;11110;52.386;16.940;2023-06-22T13:34:53;8.30;;;7.03;;
21890;SDS011;11110;52.386;16.940;2023-06-22T13:37:22;4.07;;;3.67;;
21890;SDS011;11110;52.386;16.940;2023-06-22T13:39:51;5.35;;;4.43;;
21890;SDS011;11110;52.386;16.940;2023-06-22T13:42:23;7.03;;;6.30;;
21890;SDS011;11110;52.386;16.940;2023-06-22T13:44:53;6.25;;;5.05;;
21890;SDS011;11110;52.386;16.940;2023-06-22T13:47:22;4.50;;;4.05;;
21890;SDS011;11110;52.386;16.940;2023-06-22T13:49:50;5.07;;;3.80;;
21890;SDS011;11110;52.386;16.940;2023-06-22T13:52:19;5.97;;;4.70;;
21890;SDS011;11110;52.386;16.940;2023-06-22T13:54:47;4.03;;;3.67;;
21890;SDS011;11110;52.386;16.940;2023-06-22T13:57:16;5.65;;;3.97;;
21890;SDS011;11110;52.386;16.940;2023-06-22T13:59:44;7.30;;;4.95;;
21890;SDS011;11110;52.386;16.940;2023-06-22T14:02:14;6.05;;;4.20;;
21890;SDS011;11110;52.386;16.940;2023-06-22T14:04:43;3.78;;;3.03;;
21890;SDS011;11110;52.386;16.940;2023-06-22T14:07:11;5.70;;;3.90;;
21890;SDS011;11110;52.386;16.940;2023-06-22T14:09:40;4.25;;;3.78;;
21890;SDS011;11110;52.386;16.940;2023-06-22T14:12:09;3.38;;;3.08;;
21890;SDS011;11110;52.386;16.940;2023-06-22T14:14:38;4.20;;;3.45;;
21890;SDS011;11110;52.386;16.940;2023-06-22T14:17:07;4.10;;;3.67;;
21890;SDS011;11110;52.386;16.940;2023-06-22T14:19:37;5.13;;;3.58;;
21890;SDS011;11110;52.386;16.940;2023-06-22T14:22:05;6.18;;;4.53;;
21890;SDS011;11110;52.386;16.940;2023-06-22T14:24:34;6.25;;;5.53;;
21890;SDS011;11110;52.386;16.940;2023-06-22T14:27:02;5.78;;;4.75;;
21890;SDS011;11110;52.386;16.940;2023-06-22T14:29:34;6.03;;;3.72;;
21890;SDS011;11110;52.386;16.940;2023-06-22T14:32:03;6.93;;;5.22;;
21890;SDS011;11110;52.386;16.940;2023-06-22T14:34:33;7.70;;;6.10;;
21890;SDS011;11110;52.386;16.940;2023-06-22T14:37:04;6.95;;;5.68;;
21890;SDS011;11110;52.386;16.940;2023-06-22T14:39:33;4.00;;;3.63;;
21890;SDS011;11110;52.386;16.940;2023-06-22T14:42:02;4.93;;;4.00;;
21890;SDS011;11110;52.386;16.940;2023-06-22T14:44:31;4.10;;;3.70;;